KALM

Alamogordo-White Sands Regional Airport

Alamogordo, New Mexico, USA
METAR KALM 181335Z AUTO 17011KT 10SM CLR 10/00 A2999 RMK AO2
Observed Flight Rules
Jan-18 @ 13:35 UTC (11 minutes ago) Visual Flight Rules
Wind Visibility Clouds
170° at 11 knots 10 miles
  • Clear skies
Temperatures Readings
Current 10°C / 50°F
Dewpoint 0°C / 32°F
Humidity 50%
Altimeter 29.99" Hg
Pressure 1015.62 hPa
Elevation 1279
METAR KALM 181335Z AUTO 17011KT 10SM CLR 10/00 A2999 RMK AO2
Observed Flight Rules
Jan-18 @ 13:35 UTC
(11 minutes ago)
VFR
Wind Visibility
170° at 11 knots 10 miles
Clouds
  • Clear skies
Temperature Dewpoint
10°C / 50°F 0°C / 32°F
Humidity Altimeter Pressure
50% 29.99" Hg 1015.62 hPa